Time;durP1;ratioP1;P1;durP2;ratioP2;P2;SDS_P1;SDS_P2;PMS_P1;PMS_P2;Temp;Humidity;BMP_temperature;BMP_pressure;BME280_temperature;BME280_humidity;BME280_pressure;Samples;Min_cycle;Max_cycle;Signal;HPM_P1;HPM_P2
2022/01/15 00:01:27;;;;;;;;;;;20.40;31.80;;;;;;498329;239;1286;-43
2022/01/15 00:03:28;;;;;;;;;;;20.50;31.80;;;;;;498760;239;1244;-43
2022/01/15 00:05:30;;;;;;;;;;;20.50;31.80;;;;;;498914;239;1018;-43
2022/01/15 00:07:31;;;;;;;;;;;20.50;31.80;;;;;;498335;239;1462;-43
2022/01/15 00:09:32;;;;;;;;;;;20.50;31.90;;;;;;498945;239;1134;-43
2022/01/15 00:11:34;;;;;;;;;;;20.40;31.80;;;;;;498486;239;1334;-43
2022/01/15 00:13:35;;;;;;;;;;;20.50;31.90;;;;;;498924;239;1092;-43
2022/01/15 00:15:41;;;;;;;;;;;20.50;31.80;;;;;;498595;239;2582;-43
2022/01/15 00:17:47;;;;;;;;;;;20.40;31.80;;;;;;498579;239;2206;-43
2022/01/15 00:19:46;;;;;;;;;;;20.50;31.90;;;;;;498468;239;2207;-43
2022/01/15 00:21:47;;;;;;;;;;;20.50;31.80;;;;;;498616;239;1125;-43
2022/01/15 00:23:48;;;;;;;;;;;20.40;31.80;;;;;;498742;239;1180;-43
2022/01/15 00:25:50;;;;;;;;;;;20.40;31.90;;;;;;498935;239;1092;-43
2022/01/15 00:27:51;;;;;;;;;;;20.50;31.90;;;;;;498408;239;1376;-43
2022/01/15 00:29:52;;;;;;;;;;;20.40;31.80;;;;;;498520;239;1146;-43
2022/01/15 00:31:54;;;;;;;;;;;20.40;31.90;;;;;;498552;239;1208;-43
2022/01/15 00:33:55;;;;;;;;;;;20.40;31.80;;;;;;498446;239;2138;-43
2022/01/15 00:35:56;;;;;;;;;;;20.50;31.90;;;;;;498398;239;1064;-43
2022/01/15 00:37:58;;;;;;;;;;;20.40;31.80;;;;;;498865;239;1251;-43
2022/01/15 00:39:59;;;;;;;;;;;20.50;31.90;;;;;;498768;239;1130;-43
2022/01/15 00:42:00;;;;;;;;;;;20.50;31.90;;;;;;498413;239;1353;-43
2022/01/15 00:44:02;;;;;;;;;;;20.40;31.90;;;;;;498662;239;1204;-43
2022/01/15 00:46:03;;;;;;;;;;;20.40;31.90;;;;;;498837;239;1299;-43
2022/01/15 00:48:04;;;;;;;;;;;20.40;31.80;;;;;;498414;239;1169;-43
2022/01/15 00:50:06;;;;;;;;;;;20.40;31.80;;;;;;498532;239;1197;-43
2022/01/15 00:52:07;;;;;;;;;;;20.40;31.90;;;;;;498262;239;1250;-43
2022/01/15 00:54:08;;;;;;;;;;;20.40;31.80;;;;;;498913;239;2126;-43
2022/01/15 00:56:10;;;;;;;;;;;20.40;31.80;;;;;;498857;236;1193;-43
2022/01/15 00:58:11;;;;;;;;;;;20.40;31.90;;;;;;498891;239;1130;-43
2022/01/15 01:00:13;;;;;;;;;;;20.40;31.80;;;;;;498963;239;965;-43
2022/01/15 01:02:14;;;;;;;;;;;20.40;31.80;;;;;;498321;239;2790;-43
2022/01/15 01:04:15;;;;;;;;;;;20.40;31.80;;;;;;498809;239;1230;-42
2022/01/15 01:06:16;;;;;;;;;;;20.40;31.90;;;;;;498727;239;1223;-43
2022/01/15 01:08:18;;;;;;;;;;;20.40;31.90;;;;;;498617;239;1288;-43
2022/01/15 01:10:44;;;;;;;;;;;20.40;31.80;;;;;;498949;239;1073;-43
2022/01/15 01:12:34;;;;;;;;;;;20.50;31.90;;;;;;497192;239;2101;-43
2022/01/15 01:22:24;;;;;;;;;;;20.40;31.90;;;;;;498277;237;1326;-43
2022/01/15 01:23:51;;;;;;;;;;;20.50;31.80;;;;;;497247;239;1566;-43
2022/01/15 01:25:58;;;;;;;;;;;20.60;31.50;;;;;;498815;239;1328;-43
2022/01/15 01:27:57;;;;;;;;;;;20.80;31.20;;;;;;498236;239;2312;-43
2022/01/15 01:30:09;;;;;;;;;;;21.00;31.00;;;;;;498234;239;2430;-43
2022/01/15 01:32:10;;;;;;;;;;;21.10;30.80;;;;;;498326;239;2006;-43
2022/01/15 01:34:12;;;;;;;;;;;21.20;30.70;;;;;;498182;239;2338;-43
2022/01/15 01:36:17;;;;;;;;;;;21.30;30.60;;;;;;498088;239;1489;-43
2022/01/15 01:38:19;;;;;;;;;;;21.30;30.40;;;;;;498525;239;1181;-43
2022/01/15 01:40:20;;;;;;;;;;;21.40;30.40;;;;;;498094;239;2360;-43
2022/01/15 01:42:40;;;;;;;;;;;21.40;30.20;;;;;;498235;239;2297;-43
2022/01/15 01:44:39;;;;;;;;;;;21.50;30.20;;;;;;498069;239;2279;-43
2022/01/15 01:46:42;;;;;;;;;;;21.50;30.10;;;;;;498073;239;2230;-43
2022/01/15 01:48:38;;;;;;;;;;;21.60;30.10;;;;;;498095;239;2333;-43
2022/01/15 01:50:39;;;;;;;;;;;21.60;30.00;;;;;;498636;239;1319;-43
2022/01/15 01:52:41;;;;;;;;;;;21.70;30.00;;;;;;498793;239;1419;-43
2022/01/15 01:54:42;;;;;;;;;;;21.70;30.00;;;;;;498672;239;2189;-43
2022/01/15 01:56:43;;;;;;;;;;;21.70;30.00;;;;;;498397;239;1242;-43
2022/01/15 01:58:45;;;;;;;;;;;21.80;30.00;;;;;;498932;239;1083;-43
2022/01/15 02:00:46;;;;;;;;;;;21.70;29.90;;;;;;498639;239;1099;-44
2022/01/15 02:02:47;;;;;;;;;;;21.80;30.00;;;;;;498680;239;1327;-43
2022/01/15 02:04:49;;;;;;;;;;;21.80;29.90;;;;;;498873;239;1146;-43
2022/01/15 02:06:50;;;;;;;;;;;21.80;29.90;;;;;;498502;239;1350;-43
2022/01/15 02:08:54;;;;;;;;;;;21.80;29.90;;;;;;498568;239;1074;-43
2022/01/15 02:10:53;;;;;;;;;;;21.90;29.90;;;;;;498325;239;2254;-43
2022/01/15 02:12:55;;;;;;;;;;;21.90;29.80;;;;;;498608;239;1268;-44
2022/01/15 02:14:56;;;;;;;;;;;21.90;29.80;;;;;;498503;239;2177;-43
2022/01/15 02:16:57;;;;;;;;;;;21.90;29.80;;;;;;498786;239;1220;-43
2022/01/15 02:18:58;;;;;;;;;;;21.90;29.80;;;;;;498915;239;1246;-43
2022/01/15 02:23:32;;;;;;;;;;;22.00;29.80;;;;;;498593;236;1232;-43
2022/01/15 02:23:33;;;;;;;;;;;22.00;29.80;;;;;;497061;239;1231;-43
2022/01/15 02:25:33;;;;;;;;;;;22.00;29.80;;;;;;498503;239;2289;-43
2022/01/15 02:27:35;;;;;;;;;;;22.00;29.70;;;;;;498867;239;1199;-43
2022/01/15 02:29:36;;;;;;;;;;;22.00;29.70;;;;;;498917;239;1048;-44
2022/01/15 02:31:37;;;;;;;;;;;22.10;29.70;;;;;;498376;237;1140;-43
2022/01/15 02:33:39;;;;;;;;;;;22.10;29.70;;;;;;498437;239;1153;-43
2022/01/15 02:35:40;;;;;;;;;;;22.10;29.70;;;;;;498775;239;2184;-43
2022/01/15 02:37:41;;;;;;;;;;;22.10;29.60;;;;;;498706;239;1224;-43
2022/01/15 02:39:43;;;;;;;;;;;22.10;29.70;;;;;;498977;239;1057;-43
2022/01/15 02:41:44;;;;;;;;;;;22.10;29.60;;;;;;498915;239;1300;-43
2022/01/15 02:43:45;;;;;;;;;;;22.10;29.60;;;;;;498482;239;1035;-44
2022/01/15 02:45:53;;;;;;;;;;;22.20;29.70;;;;;;498473;239;1501;-43
2022/01/15 02:48:03;;;;;;;;;;;22.20;29.60;;;;;;498021;239;2665;-43
2022/01/15 02:50:04;;;;;;;;;;;22.20;29.60;;;;;;498453;239;1111;-43
2022/01/15 02:52:05;;;;;;;;;;;22.20;29.60;;;;;;498387;239;1249;-43
2022/01/15 02:54:07;;;;;;;;;;;22.20;29.60;;;;;;498958;239;1216;-43
2022/01/15 02:56:08;;;;;;;;;;;22.20;29.60;;;;;;498712;239;2212;-43
2022/01/15 02:58:09;;;;;;;;;;;22.20;29.60;;;;;;498949;239;1206;-43
2022/01/15 03:00:11;;;;;;;;;;;22.20;29.60;;;;;;498782;239;1231;-43
2022/01/15 03:02:12;;;;;;;;;;;22.20;29.60;;;;;;498875;239;1176;-43
2022/01/15 03:04:14;;;;;;;;;;;22.30;29.50;;;;;;498953;239;1212;-43
2022/01/15 03:06:15;;;;;;;;;;;22.30;29.50;;;;;;498615;235;1292;-43
2022/01/15 03:08:16;;;;;;;;;;;22.30;29.60;;;;;;498923;239;989;-43
2022/01/15 03:10:17;;;;;;;;;;;22.30;29.60;;;;;;498456;239;1062;-43
2022/01/15 03:12:19;;;;;;;;;;;22.30;29.50;;;;;;498858;239;1148;-43
2022/01/15 03:14:20;;;;;;;;;;;22.30;29.50;;;;;;498676;239;1107;-43
2022/01/15 03:16:21;;;;;;;;;;;22.30;29.60;;;;;;498314;236;2194;-43
2022/01/15 03:18:23;;;;;;;;;;;22.30;29.50;;;;;;498661;239;1187;-43
2022/01/15 03:20:24;;;;;;;;;;;22.30;29.50;;;;;;498441;239;1194;-43
2022/01/15 03:22:25;;;;;;;;;;;22.40;29.50;;;;;;498326;239;1399;-43
2022/01/15 03:24:27;;;;;;;;;;;22.40;29.50;;;;;;498614;239;1052;-43
2022/01/15 03:26:28;;;;;;;;;;;22.40;29.50;;;;;;498597;239;1161;-43
2022/01/15 03:28:29;;;;;;;;;;;22.40;29.50;;;;;;498902;239;1234;-43
2022/01/15 03:30:31;;;;;;;;;;;22.40;29.50;;;;;;498884;239;1099;-43
2022/01/15 03:32:32;;;;;;;;;;;22.40;29.50;;;;;;498479;239;1207;-42
2022/01/15 03:34:33;;;;;;;;;;;22.40;29.50;;;;;;498921;239;1061;-43
2022/01/15 03:36:35;;;;;;;;;;;22.40;29.50;;;;;;498361;239;2185;-43
2022/01/15 03:38:36;;;;;;;;;;;22.40;29.40;;;;;;498441;239;1222;-43
2022/01/15 03:40:37;;;;;;;;;;;22.40;29.40;;;;;;498431;239;1167;-43
2022/01/15 03:42:39;;;;;;;;;;;22.50;29.50;;;;;;498751;239;1188;-43
2022/01/15 03:44:40;;;;;;;;;;;22.50;29.40;;;;;;498903;239;1525;-43
2022/01/15 03:46:41;;;;;;;;;;;22.50;29.40;;;;;;498348;239;1308;-43
2022/01/15 03:48:42;;;;;;;;;;;22.50;29.40;;;;;;498922;239;1221;-43
2022/01/15 03:50:44;;;;;;;;;;;22.50;29.40;;;;;;498891;239;1261;-43
2022/01/15 03:52:45;;;;;;;;;;;22.50;29.40;;;;;;498361;239;1227;-43
2022/01/15 03:54:46;;;;;;;;;;;22.50;29.40;;;;;;498643;239;1189;-43
2022/01/15 03:56:48;;;;;;;;;;;22.50;29.40;;;;;;498418;239;2118;-43
2022/01/15 03:58:49;;;;;;;;;;;22.50;29.40;;;;;;498418;239;1202;-43
2022/01/15 04:00:50;;;;;;;;;;;22.50;29.40;;;;;;498861;239;1334;-43
2022/01/15 04:02:52;;;;;;;;;;;22.50;29.40;;;;;;498415;239;1220;-43
2022/01/15 04:04:53;;;;;;;;;;;22.50;29.40;;;;;;498951;239;1106;-43
2022/01/15 04:06:54;;;;;;;;;;;22.60;29.50;;;;;;498693;239;1363;-43
2022/01/15 04:08:56;;;;;;;;;;;22.60;29.40;;;;;;498741;239;1032;-43
2022/01/15 04:10:57;;;;;;;;;;;22.60;29.40;;;;;;498880;239;1203;-43
2022/01/15 04:12:58;;;;;;;;;;;22.60;29.40;;;;;;498440;239;1183;-43
2022/01/15 04:15:00;;;;;;;;;;;22.60;29.40;;;;;;498480;239;2197;-43
2022/01/15 04:17:01;;;;;;;;;;;22.60;29.40;;;;;;498659;239;1613;-43
2022/01/15 04:19:03;;;;;;;;;;;22.60;29.40;;;;;;498916;239;1081;-43
2022/01/15 04:21:03;;;;;;;;;;;22.60;29.40;;;;;;498373;239;1206;-43
2022/01/15 04:23:05;;;;;;;;;;;22.60;29.40;;;;;;498477;239;1208;-43
2022/01/15 04:25:06;;;;;;;;;;;22.60;29.40;;;;;;498889;239;1138;-43
2022/01/15 04:27:07;;;;;;;;;;;22.60;29.40;;;;;;498456;239;1347;-43
2022/01/15 04:29:09;;;;;;;;;;;22.60;29.40;;;;;;498411;239;1093;-43
2022/01/15 04:31:11;;;;;;;;;;;22.60;29.40;;;;;;498369;239;1138;-43
2022/01/15 04:33:12;;;;;;;;;;;22.60;29.40;;;;;;498427;239;1261;-43
2022/01/15 04:35:13;;;;;;;;;;;22.70;29.50;;;;;;498928;239;2176;-43
2022/01/15 04:37:17;;;;;;;;;;;22.60;29.40;;;;;;498686;239;1546;-43
2022/01/15 04:39:16;;;;;;;;;;;22.60;29.40;;;;;;498360;239;2134;-43
2022/01/15 04:41:17;;;;;;;;;;;22.70;29.40;;;;;;498371;239;1118;-43
2022/01/15 04:43:18;;;;;;;;;;;22.70;29.40;;;;;;498880;239;1291;-43
2022/01/15 04:45:20;;;;;;;;;;;22.60;29.40;;;;;;498829;239;1495;-43
2022/01/15 04:47:21;;;;;;;;;;;22.70;29.40;;;;;;498368;239;1218;-43
2022/01/15 04:49:22;;;;;;;;;;;22.70;29.40;;;;;;498357;239;979;-44
2022/01/15 04:51:23;;;;;;;;;;;22.70;29.40;;;;;;498327;239;1486;-43
2022/01/15 04:53:25;;;;;;;;;;;22.70;29.30;;;;;;498435;239;1143;-43
2022/01/15 04:55:26;;;;;;;;;;;22.70;29.40;;;;;;498896;239;2101;-43
2022/01/15 04:57:28;;;;;;;;;;;22.70;29.40;;;;;;498372;239;1219;-43
2022/01/15 04:59:29;;;;;;;;;;;22.70;29.40;;;;;;498514;239;1006;-43
2022/01/15 05:01:31;;;;;;;;;;;22.70;29.30;;;;;;498566;239;1389;-43
2022/01/15 05:03:32;;;;;;;;;;;22.70;29.30;;;;;;498423;239;1331;-43
2022/01/15 05:05:33;;;;;;;;;;;22.70;29.40;;;;;;498924;239;1103;-43
2022/01/15 05:07:34;;;;;;;;;;;22.70;29.40;;;;;;498458;239;1260;-43
2022/01/15 05:09:36;;;;;;;;;;;22.70;29.40;;;;;;498675;239;1119;-43
2022/01/15 05:11:45;;;;;;;;;;;22.80;29.40;;;;;;498397;239;1337;-44
2022/01/15 05:13:45;;;;;;;;;;;22.70;29.40;;;;;;498341;239;2469;-43
2022/01/15 05:15:46;;;;;;;;;;;22.80;29.40;;;;;;498384;239;2181;-43
2022/01/15 05:17:48;;;;;;;;;;;22.80;29.40;;;;;;498891;239;1251;-43
2022/01/15 05:19:49;;;;;;;;;;;22.80;29.40;;;;;;498769;239;1168;-43
2022/01/15 05:21:52;;;;;;;;;;;22.80;29.30;;;;;;498483;239;1075;-43
2022/01/15 05:23:52;;;;;;;;;;;22.80;29.40;;;;;;498302;239;2154;-43
2022/01/15 05:25:53;;;;;;;;;;;22.80;29.40;;;;;;498788;239;1319;-43
2022/01/15 05:27:54;;;;;;;;;;;22.80;29.40;;;;;;498363;239;1194;-43
2022/01/15 05:29:56;;;;;;;;;;;22.80;29.40;;;;;;498370;239;989;-43
2022/01/15 05:31:57;;;;;;;;;;;22.80;29.40;;;;;;498273;239;1673;-43
2022/01/15 05:33:58;;;;;;;;;;;22.80;29.40;;;;;;498879;239;1164;-43
2022/01/15 05:36:00;;;;;;;;;;;22.80;29.40;;;;;;498610;239;2193;-43
2022/01/15 05:38:01;;;;;;;;;;;22.80;29.40;;;;;;498361;239;1196;-43
2022/01/15 05:40:02;;;;;;;;;;;22.80;29.40;;;;;;498618;239;1218;-43
2022/01/15 05:42:04;;;;;;;;;;;22.80;29.30;;;;;;498637;239;1154;-44
2022/01/15 05:44:05;;;;;;;;;;;22.80;29.40;;;;;;498899;239;1067;-43
2022/01/15 05:46:06;;;;;;;;;;;22.80;29.30;;;;;;498374;239;1119;-43
2022/01/15 05:48:07;;;;;;;;;;;22.80;29.30;;;;;;498433;239;1291;-43
2022/01/15 05:50:09;;;;;;;;;;;22.80;29.30;;;;;;498586;239;1060;-43
2022/01/15 05:52:10;;;;;;;;;;;22.80;29.40;;;;;;498747;239;1348;-43
2022/01/15 05:54:11;;;;;;;;;;;22.80;29.40;;;;;;498447;239;1212;-43
2022/01/15 05:56:13;;;;;;;;;;;22.80;29.30;;;;;;498845;239;2180;-43
2022/01/15 05:58:14;;;;;;;;;;;22.80;29.30;;;;;;498913;239;1562;-43
2022/01/15 06:00:15;;;;;;;;;;;22.80;29.30;;;;;;498485;239;1077;-43
2022/01/15 06:02:17;;;;;;;;;;;22.90;29.40;;;;;;498498;239;1179;-43
2022/01/15 06:04:18;;;;;;;;;;;22.90;29.40;;;;;;498460;239;1058;-43
2022/01/15 06:06:19;;;;;;;;;;;22.90;29.30;;;;;;498296;239;1331;-43
2022/01/15 06:08:21;;;;;;;;;;;22.90;29.40;;;;;;498434;239;1319;-43
2022/01/15 06:10:22;;;;;;;;;;;22.90;29.40;;;;;;498941;239;1152;-43
2022/01/15 06:12:29;;;;;;;;;;;22.90;29.40;;;;;;498337;239;1251;-43
2022/01/15 06:14:25;;;;;;;;;;;22.80;29.30;;;;;;498165;239;2313;-43
2022/01/15 06:16:27;;;;;;;;;;;22.90;29.40;;;;;;498626;239;2188;-43
2022/01/15 06:18:28;;;;;;;;;;;22.80;29.40;;;;;;498843;239;1529;-43
2022/01/15 06:20:29;;;;;;;;;;;22.80;29.50;;;;;;498926;239;1248;-43
2022/01/15 06:22:31;;;;;;;;;;;22.70;29.50;;;;;;498529;239;1210;-43
2022/01/15 06:24:32;;;;;;;;;;;22.50;29.70;;;;;;498556;239;1225;-43
2022/01/15 06:26:33;;;;;;;;;;;22.30;30.00;;;;;;498865;239;1248;-43
2022/01/15 06:28:34;;;;;;;;;;;22.10;30.10;;;;;;498907;239;1189;-43
2022/01/15 06:30:36;;;;;;;;;;;22.00;30.30;;;;;;498738;239;1421;-43
2022/01/15 06:32:37;;;;;;;;;;;21.90;30.40;;;;;;498657;239;1207;-43
2022/01/15 06:34:38;;;;;;;;;;;21.90;30.60;;;;;;498929;239;1203;-43
2022/01/15 06:36:40;;;;;;;;;;;21.80;30.70;;;;;;498664;239;2149;-43
2022/01/15 06:38:41;;;;;;;;;;;21.70;30.70;;;;;;498529;239;1113;-43
2022/01/15 06:40:42;;;;;;;;;;;21.70;30.80;;;;;;498907;239;1056;-43
2022/01/15 06:42:44;;;;;;;;;;;21.70;30.90;;;;;;498454;239;1142;-43
2022/01/15 06:44:45;;;;;;;;;;;21.60;30.90;;;;;;498425;239;1066;-43
2022/01/15 06:46:46;;;;;;;;;;;21.60;30.90;;;;;;498331;239;1258;-43
2022/01/15 06:48:48;;;;;;;;;;;21.60;31.00;;;;;;498441;239;1052;-43
2022/01/15 06:50:49;;;;;;;;;;;21.50;31.10;;;;;;498457;239;1092;-43
2022/01/15 06:52:51;;;;;;;;;;;21.50;31.20;;;;;;498883;239;1318;-43
2022/01/15 06:54:52;;;;;;;;;;;21.40;31.10;;;;;;498521;239;1214;-43
2022/01/15 06:56:53;;;;;;;;;;;21.40;31.20;;;;;;498690;239;2192;-43
2022/01/15 06:58:55;;;;;;;;;;;21.40;31.20;;;;;;498472;239;1032;-43
2022/01/15 07:00:56;;;;;;;;;;;21.40;31.20;;;;;;498343;239;1208;-43
2022/01/15 07:03:00;;;;;;;;;;;21.30;31.30;;;;;;498252;239;1306;-43
2022/01/15 07:04:59;;;;;;;;;;;21.30;31.30;;;;;;498437;239;2264;-43
2022/01/15 07:07:01;;;;;;;;;;;21.30;31.40;;;;;;498299;239;1310;-43
2022/01/15 07:09:02;;;;;;;;;;;21.30;31.40;;;;;;498545;239;1131;-43
2022/01/15 07:11:04;;;;;;;;;;;21.30;31.40;;;;;;498579;239;1254;-43
2022/01/15 07:13:05;;;;;;;;;;;21.20;31.40;;;;;;498318;239;1268;-43
2022/01/15 07:15:06;;;;;;;;;;;21.20;31.40;;;;;;498434;239;1208;-43
2022/01/15 07:17:09;;;;;;;;;;;21.20;31.50;;;;;;498420;239;2121;-43
2022/01/15 07:19:09;;;;;;;;;;;21.20;31.50;;;;;;498843;239;2100;-43
2022/01/15 07:21:10;;;;;;;;;;;21.20;31.40;;;;;;498341;239;1541;-43
2022/01/15 07:23:12;;;;;;;;;;;21.20;31.40;;;;;;498843;239;1126;-43
2022/01/15 07:25:13;;;;;;;;;;;21.20;31.50;;;;;;498563;239;1210;-43
2022/01/15 07:27:14;;;;;;;;;;;21.20;31.50;;;;;;498628;239;1593;-43
2022/01/15 07:29:16;;;;;;;;;;;21.20;31.50;;;;;;498474;239;1064;-43
2022/01/15 07:31:17;;;;;;;;;;;21.10;31.50;;;;;;498549;239;1167;-43
2022/01/15 07:33:18;;;;;;;;;;;21.10;31.60;;;;;;498344;239;1293;-43
2022/01/15 07:35:20;;;;;;;;;;;21.10;31.60;;;;;;498397;239;1075;-43
2022/01/15 07:37:21;;;;;;;;;;;21.10;31.60;;;;;;498229;239;2185;-43
2022/01/15 07:39:22;;;;;;;;;;;21.10;31.70;;;;;;498352;239;1109;-43
2022/01/15 07:41:24;;;;;;;;;;;21.10;31.60;;;;;;498551;239;1410;-43
2022/01/15 07:43:26;;;;;;;;;;;21.10;31.60;;;;;;498566;239;1049;-43
2022/01/15 07:45:26;;;;;;;;;;;21.00;31.60;;;;;;498275;239;2343;-43
2022/01/15 07:47:27;;;;;;;;;;;21.00;31.60;;;;;;498294;239;1211;-43
2022/01/15 07:49:29;;;;;;;;;;;21.00;31.60;;;;;;498708;239;1033;-43
2022/01/15 07:51:30;;;;;;;;;;;21.00;31.60;;;;;;498222;239;1278;-43
2022/01/15 07:53:31;;;;;;;;;;;21.00;31.60;;;;;;498498;239;1039;-43
2022/01/15 07:55:33;;;;;;;;;;;21.00;31.60;;;;;;498454;239;1361;-44
2022/01/15 07:57:34;;;;;;;;;;;21.00;31.70;;;;;;498571;239;2121;-43
2022/01/15 07:59:35;;;;;;;;;;;21.00;31.70;;;;;;498602;239;1334;-43
2022/01/15 08:01:37;;;;;;;;;;;21.00;31.70;;;;;;498494;239;1360;-43
2022/01/15 08:03:38;;;;;;;;;;;21.00;31.70;;;;;;498830;239;1198;-43
2022/01/15 08:05:39;;;;;;;;;;;21.00;31.70;;;;;;498386;239;1046;-43
2022/01/15 08:07:41;;;;;;;;;;;21.00;31.70;;;;;;498496;239;1159;-42
2022/01/15 08:09:42;;;;;;;;;;;21.00;31.70;;;;;;498729;239;1192;-43
2022/01/15 08:11:44;;;;;;;;;;;21.00;31.70;;;;;;498396;239;1212;-43
2022/01/15 08:13:45;;;;;;;;;;;21.00;31.70;;;;;;498318;239;1026;-43
2022/01/15 08:15:46;;;;;;;;;;;21.00;31.70;;;;;;498781;239;1226;-43
2022/01/15 08:17:48;;;;;;;;;;;20.90;31.70;;;;;;498257;239;2114;-43
2022/01/15 08:19:49;;;;;;;;;;;20.90;31.70;;;;;;498404;239;1069;-43
2022/01/15 08:21:50;;;;;;;;;;;20.90;31.80;;;;;;498516;239;1360;-43
2022/01/15 08:23:52;;;;;;;;;;;20.90;31.80;;;;;;498563;239;1087;-43
2022/01/15 08:25:53;;;;;;;;;;;20.90;31.80;;;;;;498516;239;1177;-43
2022/01/15 08:27:54;;;;;;;;;;;20.90;31.80;;;;;;498290;239;1717;-43
2022/01/15 08:29:55;;;;;;;;;;;20.90;31.80;;;;;;498854;239;1051;-43
2022/01/15 08:31:57;;;;;;;;;;;20.90;31.80;;;;;;498339;239;1250;-43
2022/01/15 08:33:58;;;;;;;;;;;20.90;31.80;;;;;;498837;239;1058;-43
2022/01/15 08:35:59;;;;;;;;;;;20.90;31.80;;;;;;498807;239;1072;-43
2022/01/15 08:38:02;;;;;;;;;;;20.90;31.70;;;;;;498694;239;2129;-43
2022/01/15 08:40:03;;;;;;;;;;;20.90;31.80;;;;;;498728;239;2076;-43
2022/01/15 08:42:06;;;;;;;;;;;20.80;31.80;;;;;;498560;239;1290;-43
2022/01/15 08:44:06;;;;;;;;;;;20.80;31.80;;;;;;498202;239;2222;-43
2022/01/15 08:46:07;;;;;;;;;;;20.80;31.80;;;;;;498278;239;1180;-43
2022/01/15 08:48:09;;;;;;;;;;;20.90;31.80;;;;;;498784;239;1203;-43
2022/01/15 08:50:10;;;;;;;;;;;20.80;31.80;;;;;;498878;239;1111;-43
2022/01/15 08:52:11;;;;;;;;;;;20.80;31.80;;;;;;498471;239;1181;-43
2022/01/15 08:54:12;;;;;;;;;;;20.80;31.90;;;;;;498356;239;1175;-43
2022/01/15 08:56:14;;;;;;;;;;;20.80;31.80;;;;;;498398;239;1316;-43
2022/01/15 08:58:15;;;;;;;;;;;20.90;31.80;;;;;;498380;239;2118;-43
2022/01/15 09:00:16;;;;;;;;;;;20.80;31.80;;;;;;498825;239;1020;-43
2022/01/15 09:02:18;;;;;;;;;;;20.80;31.80;;;;;;498590;239;1273;-43
2022/01/15 09:04:19;;;;;;;;;;;20.80;31.80;;;;;;498753;239;1222;-43
2022/01/15 09:06:20;;;;;;;;;;;20.80;31.80;;;;;;498635;239;1333;-43
2022/01/15 09:08:24;;;;;;;;;;;20.90;31.80;;;;;;498697;239;1224;-43
2022/01/15 09:10:23;;;;;;;;;;;20.80;31.80;;;;;;498663;239;2102;-43
2022/01/15 09:12:24;;;;;;;;;;;20.80;31.80;;;;;;498361;239;1190;-43
2022/01/15 09:14:26;;;;;;;;;;;20.80;31.90;;;;;;498405;239;1314;-43
2022/01/15 09:16:27;;;;;;;;;;;20.80;31.90;;;;;;498684;239;1198;-43
2022/01/15 09:18:29;;;;;;;;;;;20.70;31.90;;;;;;498663;239;2184;-43
2022/01/15 09:20:30;;;;;;;;;;;20.80;31.90;;;;;;498740;239;1824;-43
2022/01/15 09:22:31;;;;;;;;;;;20.70;31.90;;;;;;498569;239;1138;-43
2022/01/15 09:24:33;;;;;;;;;;;20.70;31.90;;;;;;498876;239;1238;-43
2022/01/15 09:26:49;;;;;;;;;;;20.80;31.90;;;;;;498491;239;1278;-43
2022/01/15 09:31:24;;;;;;;;;;;20.70;31.90;;;;;;482516;246;1475;-43
2022/01/15 09:33:26;;;;;;;;;;;20.70;31.90;;;;;;490738;239;1278;-43
2022/01/15 09:35:27;;;;;;;;;;;20.70;31.90;;;;;;498509;239;1069;-43
2022/01/15 09:37:28;;;;;;;;;;;20.70;31.90;;;;;;498314;239;2184;-43
2022/01/15 09:39:30;;;;;;;;;;;20.70;31.90;;;;;;498818;239;1263;-43
2022/01/15 09:41:31;;;;;;;;;;;20.70;31.90;;;;;;498313;239;1282;-43
2022/01/15 09:43:32;;;;;;;;;;;20.70;31.90;;;;;;498344;239;1027;-43
2022/01/15 09:45:35;;;;;;;;;;;20.70;31.90;;;;;;498781;239;1020;-43
2022/01/15 09:47:35;;;;;;;;;;;20.70;31.90;;;;;;498191;239;2321;-43
2022/01/15 09:49:37;;;;;;;;;;;20.70;31.90;;;;;;498729;239;1158;-43
2022/01/15 09:51:38;;;;;;;;;;;20.70;31.90;;;;;;498360;239;1304;-43
2022/01/15 09:53:39;;;;;;;;;;;20.70;31.90;;;;;;498444;239;1221;-43
2022/01/15 09:55:41;;;;;;;;;;;20.70;32.00;;;;;;498809;239;1314;-43
2022/01/15 09:57:42;;;;;;;;;;;20.70;32.00;;;;;;498398;239;2122;-43
2022/01/15 09:59:43;;;;;;;;;;;20.70;31.90;;;;;;498391;239;1050;-43
2022/01/15 10:01:45;;;;;;;;;;;20.70;32.00;;;;;;498249;239;1329;-43
2022/01/15 10:03:46;;;;;;;;;;;20.70;32.00;;;;;;498576;239;1063;-43
2022/01/15 10:05:49;;;;;;;;;;;20.70;31.90;;;;;;498308;239;1376;-43
2022/01/15 10:07:49;;;;;;;;;;;20.70;32.00;;;;;;498588;239;1765;-43
2022/01/15 10:09:50;;;;;;;;;;;20.60;32.00;;;;;;498882;239;1298;-43
2022/01/15 10:11:52;;;;;;;;;;;20.60;32.00;;;;;;498568;239;1328;-43
2022/01/15 10:13:53;;;;;;;;;;;20.60;32.00;;;;;;498840;239;1054;-43
2022/01/15 10:15:55;;;;;;;;;;;20.60;32.00;;;;;;498789;239;1256;-43
2022/01/15 10:17:56;;;;;;;;;;;20.60;32.00;;;;;;498694;239;2125;-43
2022/01/15 10:19:58;;;;;;;;;;;20.60;32.00;;;;;;498385;239;1093;-43
2022/01/15 10:21:59;;;;;;;;;;;20.60;32.00;;;;;;498691;236;1134;-43
2022/01/15 10:24:01;;;;;;;;;;;20.60;32.00;;;;;;498491;239;965;-42
2022/01/15 10:26:03;;;;;;;;;;;20.60;32.00;;;;;;498405;239;1205;-43
2022/01/15 10:28:04;;;;;;;;;;;20.60;32.00;;;;;;498611;239;1219;-43
2022/01/15 10:30:05;;;;;;;;;;;20.60;32.00;;;;;;498354;239;1078;-43
2022/01/15 10:32:06;;;;;;;;;;;20.60;32.00;;;;;;498277;239;1258;-43
2022/01/15 10:34:08;;;;;;;;;;;20.60;32.00;;;;;;498832;239;1250;-43
2022/01/15 10:36:09;;;;;;;;;;;20.60;32.00;;;;;;498767;239;1178;-43
2022/01/15 10:38:11;;;;;;;;;;;20.60;32.10;;;;;;498515;239;2185;-43
2022/01/15 10:40:12;;;;;;;;;;;20.60;32.00;;;;;;498780;239;1182;-43
2022/01/15 10:42:13;;;;;;;;;;;20.60;32.10;;;;;;498352;239;1294;-43
2022/01/15 10:44:15;;;;;;;;;;;20.60;32.00;;;;;;498404;239;1217;-43
2022/01/15 10:46:16;;;;;;;;;;;20.60;32.10;;;;;;498497;239;1524;-43
2022/01/15 10:48:17;;;;;;;;;;;20.60;32.10;;;;;;498392;239;1200;-43
2022/01/15 10:50:19;;;;;;;;;;;20.60;32.10;;;;;;498362;239;1056;-43
2022/01/15 10:52:20;;;;;;;;;;;20.60;32.10;;;;;;498477;239;1650;-43
2022/01/15 10:54:21;;;;;;;;;;;20.60;32.00;;;;;;498590;239;1041;-43
2022/01/15 10:56:23;;;;;;;;;;;20.60;32.10;;;;;;498500;239;1340;-43
2022/01/15 10:58:24;;;;;;;;;;;20.60;32.00;;;;;;498487;239;2114;-42
2022/01/15 11:00:25;;;;;;;;;;;20.50;32.00;;;;;;498502;239;1370;-43
2022/01/15 11:02:27;;;;;;;;;;;20.60;32.00;;;;;;498329;239;1511;-43
2022/01/15 11:04:28;;;;;;;;;;;20.60;32.00;;;;;;498373;239;1169;-43
2022/01/15 11:06:29;;;;;;;;;;;20.60;32.10;;;;;;498633;239;1289;-43
2022/01/15 11:08:31;;;;;;;;;;;20.50;32.00;;;;;;498611;239;1087;-43
2022/01/15 11:10:32;;;;;;;;;;;20.50;32.10;;;;;;498339;239;1355;-43
2022/01/15 11:12:33;;;;;;;;;;;20.50;32.10;;;;;;498221;239;1182;-43
2022/01/15 11:14:35;;;;;;;;;;;20.50;32.00;;;;;;498329;239;1063;-43
2022/01/15 11:16:36;;;;;;;;;;;20.60;32.10;;;;;;498454;239;1338;-43
2022/01/15 11:18:37;;;;;;;;;;;20.50;32.10;;;;;;498833;239;2121;-43
2022/01/15 11:20:38;;;;;;;;;;;20.60;32.20;;;;;;498786;239;1046;-43
2022/01/15 11:22:40;;;;;;;;;;;20.50;32.10;;;;;;498775;239;1563;-43
2022/01/15 11:24:41;;;;;;;;;;;20.50;32.10;;;;;;498719;239;1065;-43
2022/01/15 11:26:42;;;;;;;;;;;20.50;32.20;;;;;;498524;239;1234;-43
2022/01/15 11:28:44;;;;;;;;;;;20.50;32.20;;;;;;498382;239;1053;-43
2022/01/15 11:30:45;;;;;;;;;;;20.50;32.20;;;;;;498835;239;1115;-43
2022/01/15 11:32:46;;;;;;;;;;;20.50;32.20;;;;;;498817;239;1322;-43
2022/01/15 11:34:48;;;;;;;;;;;20.50;32.20;;;;;;498409;239;1061;-43
2022/01/15 11:36:49;;;;;;;;;;;20.50;32.10;;;;;;498594;239;1343;-43
2022/01/15 11:38:50;;;;;;;;;;;20.50;32.10;;;;;;498347;239;2188;-43
2022/01/15 11:40:53;;;;;;;;;;;20.50;32.10;;;;;;498363;239;1027;-43
2022/01/15 11:42:53;;;;;;;;;;;20.50;32.20;;;;;;498061;239;2349;-43
2022/01/15 11:44:54;;;;;;;;;;;20.50;32.20;;;;;;498417;239;1135;-43
2022/01/15 11:46:56;;;;;;;;;;;20.50;32.10;;;;;;498233;239;1196;-43
2022/01/15 11:48:57;;;;;;;;;;;20.50;32.10;;;;;;498308;239;1233;-43
2022/01/15 11:50:59;;;;;;;;;;;20.50;32.20;;;;;;498757;239;1264;-43
2022/01/15 11:53:00;;;;;;;;;;;20.50;32.10;;;;;;498778;239;1653;-43
2022/01/15 11:55:04;;;;;;;;;;;20.50;32.10;;;;;;498684;239;1094;-43
2022/01/15 11:57:02;;;;;;;;;;;20.50;32.20;;;;;;498216;239;2060;-43
2022/01/15 11:59:04;;;;;;;;;;;20.50;32.20;;;;;;498323;239;2204;-43
2022/01/15 12:01:05;;;;;;;;;;;20.50;32.20;;;;;;498800;239;1169;-43
2022/01/15 12:03:07;;;;;;;;;;;20.50;32.20;;;;;;498511;239;1209;-43
2022/01/15 12:05:08;;;;;;;;;;;20.50;32.20;;;;;;498364;239;1076;-43
2022/01/15 12:07:09;;;;;;;;;;;20.50;32.10;;;;;;498211;239;1529;-43
2022/01/15 12:09:11;;;;;;;;;;;20.50;32.20;;;;;;498408;239;1029;-43